sensor_id;sensor_type;location;lat;lon;timestamp;P1;durP1;ratioP1;P2;durP2;ratioP2
8819;SDS011;4446;50.876;4.736;2024-03-22T00:00:37;28.08;;;13.23;;
8819;SDS011;4446;50.876;4.736;2024-03-22T00:03:04;28.75;;;13.98;;
8819;SDS011;4446;50.876;4.736;2024-03-22T00:05:30;31.88;;;15.52;;
8819;SDS011;4446;50.876;4.736;2024-03-22T00:07:57;30.65;;;14.60;;
8819;SDS011;4446;50.876;4.736;2024-03-22T00:10:23;31.35;;;14.98;;
8819;SDS011;4446;50.876;4.736;2024-03-22T00:12:50;30.60;;;14.07;;
8819;SDS011;4446;50.876;4.736;2024-03-22T00:15:17;28.80;;;15.00;;
8819;SDS011;4446;50.876;4.736;2024-03-22T00:17:44;27.40;;;14.18;;
8819;SDS011;4446;50.876;4.736;2024-03-22T00:20:10;30.30;;;14.52;;
8819;SDS011;4446;50.876;4.736;2024-03-22T00:22:37;29.00;;;13.65;;
8819;SDS011;4446;50.876;4.736;2024-03-22T00:25:04;32.90;;;15.05;;
8819;SDS011;4446;50.876;4.736;2024-03-22T00:27:31;29.65;;;14.45;;
8819;SDS011;4446;50.876;4.736;2024-03-22T00:29:57;34.95;;;15.43;;
8819;SDS011;4446;50.876;4.736;2024-03-22T00:32:26;30.15;;;15.30;;
8819;SDS011;4446;50.876;4.736;2024-03-22T00:34:52;30.85;;;14.27;;
8819;SDS011;4446;50.876;4.736;2024-03-22T00:37:19;31.35;;;14.95;;
8819;SDS011;4446;50.876;4.736;2024-03-22T00:39:45;28.40;;;14.18;;
8819;SDS011;4446;50.876;4.736;2024-03-22T00:42:12;24.92;;;13.48;;
8819;SDS011;4446;50.876;4.736;2024-03-22T00:44:38;29.30;;;13.50;;
8819;SDS011;4446;50.876;4.736;2024-03-22T00:47:05;28.30;;;14.48;;
8819;SDS011;4446;50.876;4.736;2024-03-22T00:49:32;27.85;;;13.18;;
8819;SDS011;4446;50.876;4.736;2024-03-22T00:51:59;28.02;;;14.20;;
8819;SDS011;4446;50.876;4.736;2024-03-22T00:54:25;28.00;;;15.00;;
8819;SDS011;4446;50.876;4.736;2024-03-22T00:56:52;29.55;;;12.85;;
8819;SDS011;4446;50.876;4.736;2024-03-22T00:59:18;31.40;;;13.88;;
8819;SDS011;4446;50.876;4.736;2024-03-22T01:01:45;33.95;;;14.45;;
8819;SDS011;4446;50.876;4.736;2024-03-22T01:04:11;26.83;;;14.13;;
8819;SDS011;4446;50.876;4.736;2024-03-22T01:06:40;29.50;;;13.93;;
8819;SDS011;4446;50.876;4.736;2024-03-22T01:09:05;31.50;;;14.45;;
8819;SDS011;4446;50.876;4.736;2024-03-22T01:11:33;31.67;;;14.80;;
8819;SDS011;4446;50.876;4.736;2024-03-22T01:13:58;29.10;;;14.32;;
8819;SDS011;4446;50.876;4.736;2024-03-22T01:16:25;29.77;;;13.45;;
8819;SDS011;4446;50.876;4.736;2024-03-22T01:18:51;26.83;;;12.88;;
8819;SDS011;4446;50.876;4.736;2024-03-22T01:21:18;31.55;;;13.77;;
8819;SDS011;4446;50.876;4.736;2024-03-22T01:23:51;25.92;;;13.77;;
8819;SDS011;4446;50.876;4.736;2024-03-22T01:26:18;26.50;;;14.00;;
8819;SDS011;4446;50.876;4.736;2024-03-22T01:28:44;30.27;;;14.73;;
8819;SDS011;4446;50.876;4.736;2024-03-22T01:31:12;31.20;;;14.82;;
8819;SDS011;4446;50.876;4.736;2024-03-22T01:33:38;27.65;;;14.27;;
8819;SDS011;4446;50.876;4.736;2024-03-22T01:36:05;26.38;;;14.18;;
8819;SDS011;4446;50.876;4.736;2024-03-22T01:38:31;24.60;;;13.07;;
8819;SDS011;4446;50.876;4.736;2024-03-22T01:41:01;29.90;;;15.18;;
8819;SDS011;4446;50.876;4.736;2024-03-22T01:43:27;28.33;;;14.40;;
8819;SDS011;4446;50.876;4.736;2024-03-22T01:45:54;28.25;;;13.10;;
8819;SDS011;4446;50.876;4.736;2024-03-22T01:48:20;29.23;;;14.00;;
8819;SDS011;4446;50.876;4.736;2024-03-22T01:50:47;31.02;;;14.18;;
8819;SDS011;4446;50.876;4.736;2024-03-22T01:53:13;28.35;;;14.48;;
8819;SDS011;4446;50.876;4.736;2024-03-22T01:55:40;26.95;;;13.27;;
8819;SDS011;4446;50.876;4.736;2024-03-22T01:58:07;31.02;;;15.55;;
8819;SDS011;4446;50.876;4.736;2024-03-22T02:00:35;28.67;;;13.05;;
8819;SDS011;4446;50.876;4.736;2024-03-22T02:03:01;31.50;;;13.55;;
8819;SDS011;4446;50.876;4.736;2024-03-22T02:05:28;28.00;;;12.73;;
8819;SDS011;4446;50.876;4.736;2024-03-22T02:07:54;28.30;;;13.75;;
8819;SDS011;4446;50.876;4.736;2024-03-22T02:10:21;25.77;;;13.70;;
8819;SDS011;4446;50.876;4.736;2024-03-22T02:12:47;33.17;;;14.15;;
8819;SDS011;4446;50.876;4.736;2024-03-22T02:15:16;24.45;;;12.80;;
8819;SDS011;4446;50.876;4.736;2024-03-22T02:17:42;26.17;;;13.25;;
8819;SDS011;4446;50.876;4.736;2024-03-22T02:20:09;27.02;;;12.88;;
8819;SDS011;4446;50.876;4.736;2024-03-22T02:22:37;28.83;;;12.70;;
8819;SDS011;4446;50.876;4.736;2024-03-22T02:25:06;24.27;;;12.85;;
8819;SDS011;4446;50.876;4.736;2024-03-22T02:27:33;28.73;;;12.68;;
8819;SDS011;4446;50.876;4.736;2024-03-22T02:30:00;25.48;;;11.90;;
8819;SDS011;4446;50.876;4.736;2024-03-22T02:32:27;30.63;;;13.25;;
8819;SDS011;4446;50.876;4.736;2024-03-22T02:34:54;26.50;;;12.48;;
8819;SDS011;4446;50.876;4.736;2024-03-22T02:37:20;27.17;;;12.10;;
8819;SDS011;4446;50.876;4.736;2024-03-22T02:39:47;27.02;;;12.48;;
8819;SDS011;4446;50.876;4.736;2024-03-22T02:42:14;24.63;;;11.15;;
8819;SDS011;4446;50.876;4.736;2024-03-22T02:44:41;26.27;;;12.20;;
8819;SDS011;4446;50.876;4.736;2024-03-22T02:47:08;23.70;;;12.35;;
8819;SDS011;4446;50.876;4.736;2024-03-22T02:49:35;26.13;;;11.93;;
8819;SDS011;4446;50.876;4.736;2024-03-22T02:52:02;30.05;;;12.95;;
8819;SDS011;4446;50.876;4.736;2024-03-22T02:54:30;27.73;;;11.45;;
8819;SDS011;4446;50.876;4.736;2024-03-22T02:56:56;27.13;;;11.70;;
8819;SDS011;4446;50.876;4.736;2024-03-22T02:59:26;25.58;;;11.13;;
8819;SDS011;4446;50.876;4.736;2024-03-22T03:01:52;24.52;;;10.60;;
8819;SDS011;4446;50.876;4.736;2024-03-22T03:04:19;27.15;;;11.45;;
8819;SDS011;4446;50.876;4.736;2024-03-22T03:06:45;21.15;;;10.80;;
8819;SDS011;4446;50.876;4.736;2024-03-22T03:09:13;28.27;;;11.77;;
8819;SDS011;4446;50.876;4.736;2024-03-22T03:11:39;22.85;;;10.15;;
8819;SDS011;4446;50.876;4.736;2024-03-22T03:14:06;26.13;;;10.77;;
8819;SDS011;4446;50.876;4.736;2024-03-22T03:16:33;19.60;;;8.95;;
8819;SDS011;4446;50.876;4.736;2024-03-22T03:19:00;20.73;;;10.73;;
8819;SDS011;4446;50.876;4.736;2024-03-22T03:21:26;21.58;;;10.10;;
8819;SDS011;4446;50.876;4.736;2024-03-22T03:23:53;20.67;;;10.95;;
8819;SDS011;4446;50.876;4.736;2024-03-22T03:26:19;19.00;;;9.68;;
8819;SDS011;4446;50.876;4.736;2024-03-22T03:28:46;18.55;;;9.18;;
8819;SDS011;4446;50.876;4.736;2024-03-22T03:31:12;22.40;;;10.48;;
8819;SDS011;4446;50.876;4.736;2024-03-22T03:33:41;21.20;;;10.13;;
8819;SDS011;4446;50.876;4.736;2024-03-22T03:36:07;19.95;;;9.15;;
8819;SDS011;4446;50.876;4.736;2024-03-22T03:38:34;21.10;;;10.70;;
8819;SDS011;4446;50.876;4.736;2024-03-22T03:41:02;15.27;;;8.93;;
8819;SDS011;4446;50.876;4.736;2024-03-22T03:43:30;16.15;;;8.75;;
8819;SDS011;4446;50.876;4.736;2024-03-22T03:45:56;18.10;;;8.60;;
8819;SDS011;4446;50.876;4.736;2024-03-22T03:48:23;19.73;;;8.85;;
8819;SDS011;4446;50.876;4.736;2024-03-22T03:50:53;18.70;;;9.00;;
8819;SDS011;4446;50.876;4.736;2024-03-22T03:53:26;16.13;;;8.95;;
8819;SDS011;4446;50.876;4.736;2024-03-22T03:55:52;15.70;;;8.35;;
8819;SDS011;4446;50.876;4.736;2024-03-22T03:58:19;16.30;;;9.35;;
8819;SDS011;4446;50.876;4.736;2024-03-22T04:00:45;17.50;;;8.38;;
8819;SDS011;4446;50.876;4.736;2024-03-22T04:03:12;16.13;;;8.38;;
8819;SDS011;4446;50.876;4.736;2024-03-22T04:05:38;17.30;;;9.07;;
8819;SDS011;4446;50.876;4.736;2024-03-22T04:08:06;13.88;;;7.05;;
8819;SDS011;4446;50.876;4.736;2024-03-22T04:10:32;17.42;;;8.48;;
8819;SDS011;4446;50.876;4.736;2024-03-22T04:12:59;19.23;;;9.18;;
8819;SDS011;4446;50.876;4.736;2024-03-22T04:15:25;16.80;;;8.90;;
8819;SDS011;4446;50.876;4.736;2024-03-22T04:17:52;19.05;;;8.70;;
8819;SDS011;4446;50.876;4.736;2024-03-22T04:20:20;17.80;;;8.60;;
8819;SDS011;4446;50.876;4.736;2024-03-22T04:22:47;16.02;;;8.13;;
8819;SDS011;4446;50.876;4.736;2024-03-22T04:25:16;17.92;;;8.77;;
8819;SDS011;4446;50.876;4.736;2024-03-22T04:27:43;12.93;;;8.18;;
8819;SDS011;4446;50.876;4.736;2024-03-22T04:30:09;17.73;;;8.10;;
8819;SDS011;4446;50.876;4.736;2024-03-22T04:32:37;15.68;;;7.93;;
8819;SDS011;4446;50.876;4.736;2024-03-22T04:35:03;15.52;;;7.82;;
8819;SDS011;4446;50.876;4.736;2024-03-22T04:37:31;14.95;;;7.28;;
8819;SDS011;4446;50.876;4.736;2024-03-22T04:39:58;15.05;;;7.95;;
8819;SDS011;4446;50.876;4.736;2024-03-22T04:42:26;12.85;;;6.70;;
8819;SDS011;4446;50.876;4.736;2024-03-22T04:44:53;15.95;;;7.35;;
8819;SDS011;4446;50.876;4.736;2024-03-22T04:47:20;16.20;;;7.88;;
8819;SDS011;4446;50.876;4.736;2024-03-22T04:49:46;13.85;;;7.88;;
8819;SDS011;4446;50.876;4.736;2024-03-22T04:52:13;13.20;;;6.90;;
8819;SDS011;4446;50.876;4.736;2024-03-22T04:54:40;13.45;;;7.00;;
8819;SDS011;4446;50.876;4.736;2024-03-22T04:57:06;14.10;;;7.50;;
8819;SDS011;4446;50.876;4.736;2024-03-22T04:59:35;14.30;;;7.90;;
8819;SDS011;4446;50.876;4.736;2024-03-22T05:02:00;13.77;;;6.10;;
8819;SDS011;4446;50.876;4.736;2024-03-22T05:04:27;13.65;;;6.90;;
8819;SDS011;4446;50.876;4.736;2024-03-22T05:06:53;13.90;;;7.38;;
8819;SDS011;4446;50.876;4.736;2024-03-22T05:09:20;11.27;;;6.10;;
8819;SDS011;4446;50.876;4.736;2024-03-22T05:11:46;14.07;;;6.80;;
8819;SDS011;4446;50.876;4.736;2024-03-22T05:14:16;11.63;;;6.72;;
8819;SDS011;4446;50.876;4.736;2024-03-22T05:16:43;11.10;;;6.85;;
8819;SDS011;4446;50.876;4.736;2024-03-22T05:19:10;13.75;;;6.57;;
8819;SDS011;4446;50.876;4.736;2024-03-22T05:21:36;10.88;;;6.10;;
8819;SDS011;4446;50.876;4.736;2024-03-22T05:24:03;11.07;;;6.50;;
8819;SDS011;4446;50.876;4.736;2024-03-22T05:26:29;11.07;;;5.75;;
8819;SDS011;4446;50.876;4.736;2024-03-22T05:29:01;12.50;;;7.13;;
8819;SDS011;4446;50.876;4.736;2024-03-22T05:31:27;11.30;;;6.03;;
8819;SDS011;4446;50.876;4.736;2024-03-22T05:33:56;11.80;;;6.18;;
8819;SDS011;4446;50.876;4.736;2024-03-22T05:36:22;9.93;;;5.85;;
8819;SDS011;4446;50.876;4.736;2024-03-22T05:38:49;9.60;;;5.38;;
8819;SDS011;4446;50.876;4.736;2024-03-22T05:41:15;11.02;;;6.15;;
8819;SDS011;4446;50.876;4.736;2024-03-22T05:43:42;10.27;;;5.60;;
8819;SDS011;4446;50.876;4.736;2024-03-22T05:46:08;10.30;;;5.72;;
8819;SDS011;4446;50.876;4.736;2024-03-22T05:48:35;11.02;;;5.68;;
8819;SDS011;4446;50.876;4.736;2024-03-22T05:51:02;10.50;;;5.47;;
8819;SDS011;4446;50.876;4.736;2024-03-22T05:53:29;11.32;;;5.63;;
8819;SDS011;4446;50.876;4.736;2024-03-22T05:55:55;9.75;;;5.63;;
8819;SDS011;4446;50.876;4.736;2024-03-22T05:58:22;9.93;;;5.28;;
8819;SDS011;4446;50.876;4.736;2024-03-22T06:00:48;11.93;;;5.30;;
8819;SDS011;4446;50.876;4.736;2024-03-22T06:03:18;8.88;;;5.25;;
8819;SDS011;4446;50.876;4.736;2024-03-22T06:05:45;8.82;;;4.72;;
8819;SDS011;4446;50.876;4.736;2024-03-22T06:08:14;11.07;;;6.50;;
8819;SDS011;4446;50.876;4.736;2024-03-22T06:10:46;10.27;;;5.78;;
8819;SDS011;4446;50.876;4.736;2024-03-22T06:13:16;9.82;;;5.75;;
8819;SDS011;4446;50.876;4.736;2024-03-22T06:15:42;10.63;;;4.93;;
8819;SDS011;4446;50.876;4.736;2024-03-22T06:18:11;10.82;;;5.22;;
8819;SDS011;4446;50.876;4.736;2024-03-22T06:20:37;9.60;;;5.40;;
8819;SDS011;4446;50.876;4.736;2024-03-22T06:23:03;10.45;;;5.25;;
8819;SDS011;4446;50.876;4.736;2024-03-22T06:25:31;7.32;;;4.60;;
8819;SDS011;4446;50.876;4.736;2024-03-22T06:27:58;9.23;;;5.00;;
8819;SDS011;4446;50.876;4.736;2024-03-22T06:30:24;8.35;;;4.75;;
8819;SDS011;4446;50.876;4.736;2024-03-22T06:32:51;10.43;;;5.15;;
8819;SDS011;4446;50.876;4.736;2024-03-22T06:35:17;9.13;;;4.93;;
8819;SDS011;4446;50.876;4.736;2024-03-22T06:37:44;8.85;;;4.80;;
8819;SDS011;4446;50.876;4.736;2024-03-22T06:40:11;8.75;;;5.32;;
8819;SDS011;4446;50.876;4.736;2024-03-22T06:42:39;10.25;;;5.60;;
8819;SDS011;4446;50.876;4.736;2024-03-22T06:45:06;13.43;;;6.25;;
8819;SDS011;4446;50.876;4.736;2024-03-22T06:47:33;10.60;;;4.93;;
8819;SDS011;4446;50.876;4.736;2024-03-22T06:49:59;9.32;;;5.43;;
8819;SDS011;4446;50.876;4.736;2024-03-22T06:52:26;10.20;;;5.30;;
8819;SDS011;4446;50.876;4.736;2024-03-22T06:54:52;9.80;;;6.05;;
8819;SDS011;4446;50.876;4.736;2024-03-22T06:57:19;10.15;;;5.85;;
8819;SDS011;4446;50.876;4.736;2024-03-22T06:59:47;11.00;;;6.00;;
8819;SDS011;4446;50.876;4.736;2024-03-22T07:02:14;12.82;;;6.68;;
8819;SDS011;4446;50.876;4.736;2024-03-22T07:04:40;12.35;;;6.40;;
8819;SDS011;4446;50.876;4.736;2024-03-22T07:07:07;11.90;;;6.25;;
8819;SDS011;4446;50.876;4.736;2024-03-22T07:09:33;10.68;;;5.65;;
8819;SDS011;4446;50.876;4.736;2024-03-22T07:12:01;14.82;;;8.48;;
8819;SDS011;4446;50.876;4.736;2024-03-22T07:14:27;11.50;;;5.63;;
8819;SDS011;4446;50.876;4.736;2024-03-22T07:16:55;11.43;;;5.57;;
8819;SDS011;4446;50.876;4.736;2024-03-22T07:19:21;10.88;;;6.03;;
8819;SDS011;4446;50.876;4.736;2024-03-22T07:21:48;11.38;;;5.78;;
8819;SDS011;4446;50.876;4.736;2024-03-22T07:24:14;10.07;;;5.78;;
8819;SDS011;4446;50.876;4.736;2024-03-22T07:26:43;10.45;;;5.45;;
8819;SDS011;4446;50.876;4.736;2024-03-22T07:29:09;10.82;;;5.90;;
8819;SDS011;4446;50.876;4.736;2024-03-22T07:31:35;8.60;;;4.90;;
8819;SDS011;4446;50.876;4.736;2024-03-22T07:34:03;9.68;;;5.28;;
8819;SDS011;4446;50.876;4.736;2024-03-22T07:36:30;10.32;;;5.28;;
8819;SDS011;4446;50.876;4.736;2024-03-22T07:38:56;12.55;;;5.97;;
8819;SDS011;4446;50.876;4.736;2024-03-22T07:41:23;8.45;;;5.35;;
8819;SDS011;4446;50.876;4.736;2024-03-22T07:43:49;8.80;;;4.97;;
8819;SDS011;4446;50.876;4.736;2024-03-22T07:46:16;11.00;;;5.00;;
8819;SDS011;4446;50.876;4.736;2024-03-22T07:48:42;14.05;;;5.43;;
8819;SDS011;4446;50.876;4.736;2024-03-22T07:51:10;13.07;;;5.55;;
8819;SDS011;4446;50.876;4.736;2024-03-22T07:53:36;10.63;;;4.63;;
8819;SDS011;4446;50.876;4.736;2024-03-22T07:56:04;10.52;;;4.75;;
8819;SDS011;4446;50.876;4.736;2024-03-22T07:58:30;9.38;;;4.97;;
8819;SDS011;4446;50.876;4.736;2024-03-22T08:00:57;8.35;;;4.60;;
8819;SDS011;4446;50.876;4.736;2024-03-22T08:03:23;8.65;;;4.85;;
8819;SDS011;4446;50.876;4.736;2024-03-22T08:05:50;9.30;;;4.97;;
8819;SDS011;4446;50.876;4.736;2024-03-22T08:08:18;10.98;;;5.63;;
8819;SDS011;4446;50.876;4.736;2024-03-22T08:10:45;11.40;;;5.30;;
8819;SDS011;4446;50.876;4.736;2024-03-22T08:13:11;11.13;;;5.63;;
8819;SDS011;4446;50.876;4.736;2024-03-22T08:15:38;10.25;;;5.18;;
8819;SDS011;4446;50.876;4.736;2024-03-22T08:18:04;9.20;;;4.90;;
8819;SDS011;4446;50.876;4.736;2024-03-22T08:20:31;11.20;;;5.68;;
8819;SDS011;4446;50.876;4.736;2024-03-22T08:22:59;10.27;;;5.15;;
8819;SDS011;4446;50.876;4.736;2024-03-22T08:25:27;10.20;;;5.18;;
8819;SDS011;4446;50.876;4.736;2024-03-22T08:27:54;10.05;;;4.63;;
8819;SDS011;4446;50.876;4.736;2024-03-22T08:30:21;10.27;;;5.60;;
8819;SDS011;4446;50.876;4.736;2024-03-22T08:32:47;12.90;;;5.85;;
8819;SDS011;4446;50.876;4.736;2024-03-22T08:35:14;8.85;;;5.55;;
8819;SDS011;4446;50.876;4.736;2024-03-22T08:37:40;10.50;;;5.68;;
8819;SDS011;4446;50.876;4.736;2024-03-22T08:40:08;8.88;;;5.10;;
8819;SDS011;4446;50.876;4.736;2024-03-22T08:42:36;12.27;;;5.78;;
8819;SDS011;4446;50.876;4.736;2024-03-22T08:45:04;9.30;;;5.10;;
8819;SDS011;4446;50.876;4.736;2024-03-22T08:47:31;8.43;;;4.45;;
8819;SDS011;4446;50.876;4.736;2024-03-22T08:49:58;9.80;;;5.40;;
8819;SDS011;4446;50.876;4.736;2024-03-22T08:52:24;9.23;;;4.85;;
8819;SDS011;4446;50.876;4.736;2024-03-22T08:54:52;11.05;;;5.30;;
8819;SDS011;4446;50.876;4.736;2024-03-22T08:57:18;10.50;;;5.15;;
8819;SDS011;4446;50.876;4.736;2024-03-22T08:59:47;9.15;;;5.10;;
8819;SDS011;4446;50.876;4.736;2024-03-22T09:02:13;9.30;;;5.07;;
8819;SDS011;4446;50.876;4.736;2024-03-22T09:04:41;10.20;;;5.68;;
8819;SDS011;4446;50.876;4.736;2024-03-22T09:07:07;11.52;;;6.20;;
8819;SDS011;4446;50.876;4.736;2024-03-22T09:09:34;10.35;;;5.38;;
8819;SDS011;4446;50.876;4.736;2024-03-22T09:12:00;12.35;;;6.28;;
8819;SDS011;4446;50.876;4.736;2024-03-22T09:14:27;12.13;;;5.95;;
8819;SDS011;4446;50.876;4.736;2024-03-22T09:16:55;11.63;;;5.68;;
8819;SDS011;4446;50.876;4.736;2024-03-22T09:19:22;10.18;;;5.47;;
8819;SDS011;4446;50.876;4.736;2024-03-22T09:21:48;13.50;;;6.30;;
8819;SDS011;4446;50.876;4.736;2024-03-22T09:24:15;11.48;;;5.82;;
8819;SDS011;4446;50.876;4.736;2024-03-22T09:26:41;10.90;;;5.78;;
8819;SDS011;4446;50.876;4.736;2024-03-22T09:29:08;10.25;;;5.72;;
8819;SDS011;4446;50.876;4.736;2024-03-22T09:31:34;10.63;;;5.38;;
8819;SDS011;4446;50.876;4.736;2024-03-22T09:34:02;8.40;;;4.82;;
8819;SDS011;4446;50.876;4.736;2024-03-22T09:36:28;10.82;;;5.32;;
8819;SDS011;4446;50.876;4.736;2024-03-22T09:38:59;9.07;;;5.28;;
8819;SDS011;4446;50.876;4.736;2024-03-22T09:41:25;8.52;;;4.55;;
8819;SDS011;4446;50.876;4.736;2024-03-22T09:43:54;9.70;;;4.88;;
8819;SDS011;4446;50.876;4.736;2024-03-22T09:46:23;8.48;;;4.97;;
8819;SDS011;4446;50.876;4.736;2024-03-22T09:48:52;9.25;;;4.72;;
8819;SDS011;4446;50.876;4.736;2024-03-22T09:51:21;10.20;;;5.25;;
8819;SDS011;4446;50.876;4.736;2024-03-22T09:53:48;9.48;;;5.35;;
8819;SDS011;4446;50.876;4.736;2024-03-22T09:56:15;9.32;;;5.03;;
8819;SDS011;4446;50.876;4.736;2024-03-22T09:58:44;8.75;;;4.65;;
8819;SDS011;4446;50.876;4.736;2024-03-22T10:01:11;7.75;;;4.80;;
8819;SDS011;4446;50.876;4.736;2024-03-22T10:03:38;9.35;;;5.47;;
8819;SDS011;4446;50.876;4.736;2024-03-22T10:06:05;9.57;;;5.15;;
8819;SDS011;4446;50.876;4.736;2024-03-22T10:08:33;7.30;;;4.90;;
8819;SDS011;4446;50.876;4.736;2024-03-22T10:11:01;9.50;;;5.25;;
8819;SDS011;4446;50.876;4.736;2024-03-22T10:13:28;9.07;;;4.97;;
8819;SDS011;4446;50.876;4.736;2024-03-22T10:15:56;9.55;;;5.07;;
8819;SDS011;4446;50.876;4.736;2024-03-22T10:18:22;9.57;;;5.38;;
8819;SDS011;4446;50.876;4.736;2024-03-22T10:20:58;9.70;;;4.95;;
8819;SDS011;4446;50.876;4.736;2024-03-22T10:23:25;8.02;;;5.25;;
8819;SDS011;4446;50.876;4.736;2024-03-22T10:25:53;9.60;;;5.40;;
8819;SDS011;4446;50.876;4.736;2024-03-22T10:28:21;7.65;;;4.95;;
8819;SDS011;4446;50.876;4.736;2024-03-22T10:30:49;10.07;;;5.75;;
8819;SDS011;4446;50.876;4.736;2024-03-22T10:33:18;9.90;;;5.63;;
8819;SDS011;4446;50.876;4.736;2024-03-22T10:35:47;8.88;;;5.10;;
8819;SDS011;4446;50.876;4.736;2024-03-22T10:38:16;9.52;;;5.38;;
8819;SDS011;4446;50.876;4.736;2024-03-22T10:40:46;10.15;;;5.55;;
8819;SDS011;4446;50.876;4.736;2024-03-22T10:43:13;8.93;;;5.53;;
8819;SDS011;4446;50.876;4.736;2024-03-22T10:45:41;10.90;;;6.25;;
8819;SDS011;4446;50.876;4.736;2024-03-22T10:48:08;8.00;;;4.90;;
8819;SDS011;4446;50.876;4.736;2024-03-22T10:50:38;10.75;;;5.43;;
8819;SDS011;4446;50.876;4.736;2024-03-22T10:53:06;9.00;;;5.07;;
8819;SDS011;4446;50.876;4.736;2024-03-22T10:55:39;8.70;;;5.60;;
8819;SDS011;4446;50.876;4.736;2024-03-22T10:58:15;11.95;;;5.57;;
8819;SDS011;4446;50.876;4.736;2024-03-22T11:00:42;10.50;;;5.63;;
8819;SDS011;4446;50.876;4.736;2024-03-22T11:03:09;8.30;;;5.40;;
8819;SDS011;4446;50.876;4.736;2024-03-22T11:05:44;9.32;;;5.22;;
8819;SDS011;4446;50.876;4.736;2024-03-22T11:08:10;8.55;;;5.35;;
8819;SDS011;4446;50.876;4.736;2024-03-22T11:10:38;12.23;;;5.28;;
8819;SDS011;4446;50.876;4.736;2024-03-22T11:13:05;11.10;;;5.45;;
8819;SDS011;4446;50.876;4.736;2024-03-22T11:15:35;11.40;;;5.32;;
8819;SDS011;4446;50.876;4.736;2024-03-22T11:18:01;10.00;;;4.93;;
8819;SDS011;4446;50.876;4.736;2024-03-22T11:20:28;8.57;;;5.18;;
8819;SDS011;4446;50.876;4.736;2024-03-22T11:22:55;8.57;;;5.05;;
8819;SDS011;4446;50.876;4.736;2024-03-22T11:25:22;8.63;;;5.40;;
8819;SDS011;4446;50.876;4.736;2024-03-22T11:27:48;9.23;;;5.28;;
8819;SDS011;4446;50.876;4.736;2024-03-22T11:30:15;8.27;;;5.80;;
8819;SDS011;4446;50.876;4.736;2024-03-22T11:32:43;9.10;;;5.28;;
8819;SDS011;4446;50.876;4.736;2024-03-22T11:35:10;8.98;;;5.60;;
8819;SDS011;4446;50.876;4.736;2024-03-22T11:37:38;9.15;;;4.93;;
8819;SDS011;4446;50.876;4.736;2024-03-22T11:40:05;10.07;;;5.25;;
8819;SDS011;4446;50.876;4.736;2024-03-22T11:42:35;9.18;;;5.25;;
8819;SDS011;4446;50.876;4.736;2024-03-22T11:45:04;9.23;;;5.60;;
8819;SDS011;4446;50.876;4.736;2024-03-22T11:47:32;9.15;;;5.22;;
8819;SDS011;4446;50.876;4.736;2024-03-22T11:50:01;8.40;;;5.05;;
8819;SDS011;4446;50.876;4.736;2024-03-22T11:52:27;10.80;;;5.88;;
8819;SDS011;4446;50.876;4.736;2024-03-22T11:54:54;7.65;;;4.95;;
8819;SDS011;4446;50.876;4.736;2024-03-22T11:57:21;8.13;;;5.10;;
8819;SDS011;4446;50.876;4.736;2024-03-22T11:59:49;11.80;;;5.28;;
8819;SDS011;4446;50.876;4.736;2024-03-22T12:02:16;11.13;;;5.43;;
8819;SDS011;4446;50.876;4.736;2024-03-22T12:04:45;9.98;;;5.25;;
8819;SDS011;4446;50.876;4.736;2024-03-22T12:07:14;10.70;;;5.55;;
8819;SDS011;4446;50.876;4.736;2024-03-22T12:09:42;8.75;;;5.22;;
8819;SDS011;4446;50.876;4.736;2024-03-22T12:12:09;8.50;;;4.90;;
8819;SDS011;4446;50.876;4.736;2024-03-22T12:14:36;11.45;;;5.70;;
8819;SDS011;4446;50.876;4.736;2024-03-22T12:17:03;8.88;;;5.93;;
8819;SDS011;4446;50.876;4.736;2024-03-22T12:19:31;9.13;;;5.63;;
8819;SDS011;4446;50.876;4.736;2024-03-22T12:21:57;7.97;;;4.88;;
8819;SDS011;4446;50.876;4.736;2024-03-22T12:24:26;10.65;;;5.85;;
8819;SDS011;4446;50.876;4.736;2024-03-22T12:26:53;10.80;;;5.75;;
8819;SDS011;4446;50.876;4.736;2024-03-22T12:29:19;7.28;;;4.95;;
8819;SDS011;4446;50.876;4.736;2024-03-22T12:31:47;8.32;;;5.75;;
8819;SDS011;4446;50.876;4.736;2024-03-22T12:34:13;10.32;;;5.55;;
8819;SDS011;4446;50.876;4.736;2024-03-22T12:36:41;8.88;;;5.28;;
8819;SDS011;4446;50.876;4.736;2024-03-22T12:39:07;11.23;;;6.00;;
8819;SDS011;4446;50.876;4.736;2024-03-22T12:41:36;9.60;;;5.72;;
8819;SDS011;4446;50.876;4.736;2024-03-22T12:44:02;12.63;;;5.53;;
8819;SDS011;4446;50.876;4.736;2024-03-22T12:46:30;8.05;;;5.18;;
8819;SDS011;4446;50.876;4.736;2024-03-22T12:48:56;11.48;;;5.68;;
8819;SDS011;4446;50.876;4.736;2024-03-22T12:51:23;9.57;;;5.43;;
8819;SDS011;4446;50.876;4.736;2024-03-22T12:53:49;7.22;;;4.95;;
8819;SDS011;4446;50.876;4.736;2024-03-22T12:56:16;10.52;;;5.80;;
8819;SDS011;4446;50.876;4.736;2024-03-22T12:58:44;9.18;;;5.95;;
8819;SDS011;4446;50.876;4.736;2024-03-22T13:01:11;10.55;;;5.57;;
8819;SDS011;4446;50.876;4.736;2024-03-22T13:03:37;9.93;;;5.97;;
8819;SDS011;4446;50.876;4.736;2024-03-22T13:06:04;13.88;;;6.72;;
8819;SDS011;4446;50.876;4.736;2024-03-22T13:08:30;9.63;;;5.72;;
8819;SDS011;4446;50.876;4.736;2024-03-22T13:10:57;10.90;;;6.20;;
8819;SDS011;4446;50.876;4.736;2024-03-22T13:13:23;13.77;;;5.78;;
8819;SDS011;4446;50.876;4.736;2024-03-22T13:15:52;10.95;;;6.65;;
8819;SDS011;4446;50.876;4.736;2024-03-22T13:18:18;8.00;;;5.47;;
8819;SDS011;4446;50.876;4.736;2024-03-22T13:20:46;11.50;;;5.93;;
8819;SDS011;4446;50.876;4.736;2024-03-22T13:23:12;9.68;;;5.22;;
8819;SDS011;4446;50.876;4.736;2024-03-22T13:25:39;10.32;;;6.05;;
8819;SDS011;4446;50.876;4.736;2024-03-22T13:28:05;12.02;;;6.47;;
8819;SDS011;4446;50.876;4.736;2024-03-22T13:30:32;11.52;;;6.03;;
8819;SDS011;4446;50.876;4.736;2024-03-22T13:33:01;9.85;;;5.80;;
8819;SDS011;4446;50.876;4.736;2024-03-22T13:35:28;11.07;;;5.53;;
8819;SDS011;4446;50.876;4.736;2024-03-22T13:37:55;10.05;;;5.90;;
8819;SDS011;4446;50.876;4.736;2024-03-22T13:40:22;10.43;;;5.90;;
8819;SDS011;4446;50.876;4.736;2024-03-22T13:42:48;8.15;;;5.18;;
8819;SDS011;4446;50.876;4.736;2024-03-22T13:45:18;10.00;;;5.75;;
8819;SDS011;4446;50.876;4.736;2024-03-22T13:47:45;10.68;;;5.95;;
8819;SDS011;4446;50.876;4.736;2024-03-22T13:50:13;10.93;;;6.13;;
8819;SDS011;4446;50.876;4.736;2024-03-22T13:52:40;8.80;;;5.47;;
8819;SDS011;4446;50.876;4.736;2024-03-22T13:55:07;9.88;;;6.47;;
8819;SDS011;4446;50.876;4.736;2024-03-22T13:57:34;10.25;;;5.65;;
8819;SDS011;4446;50.876;4.736;2024-03-22T14:00:00;12.30;;;6.18;;
8819;SDS011;4446;50.876;4.736;2024-03-22T14:02:31;11.23;;;5.78;;
8819;SDS011;4446;50.876;4.736;2024-03-22T14:04:58;10.70;;;5.68;;
8819;SDS011;4446;50.876;4.736;2024-03-22T14:07:26;11.02;;;5.88;;
8819;SDS011;4446;50.876;4.736;2024-03-22T14:09:52;9.68;;;5.93;;
8819;SDS011;4446;50.876;4.736;2024-03-22T14:12:19;11.52;;;5.85;;
8819;SDS011;4446;50.876;4.736;2024-03-22T14:14:45;11.55;;;6.30;;
8819;SDS011;4446;50.876;4.736;2024-03-22T14:17:12;10.90;;;6.40;;
8819;SDS011;4446;50.876;4.736;2024-03-22T14:19:38;14.07;;;6.53;;
8819;SDS011;4446;50.876;4.736;2024-03-22T14:22:05;10.90;;;6.20;;
8819;SDS011;4446;50.876;4.736;2024-03-22T14:24:33;9.82;;;6.32;;
8819;SDS011;4446;50.876;4.736;2024-03-22T14:27:00;11.05;;;6.32;;
8819;SDS011;4446;50.876;4.736;2024-03-22T14:29:26;9.55;;;5.72;;
8819;SDS011;4446;50.876;4.736;2024-03-22T14:31:53;11.60;;;6.72;;
8819;SDS011;4446;50.876;4.736;2024-03-22T14:34:20;10.98;;;6.18;;
8819;SDS011;4446;50.876;4.736;2024-03-22T14:36:47;10.95;;;6.13;;
8819;SDS011;4446;50.876;4.736;2024-03-22T14:39:13;10.23;;;5.80;;
8819;SDS011;4446;50.876;4.736;2024-03-22T14:41:42;8.95;;;5.65;;
8819;SDS011;4446;50.876;4.736;2024-03-22T14:44:07;10.52;;;5.85;;
8819;SDS011;4446;50.876;4.736;2024-03-22T14:46:34;8.35;;;5.82;;
8819;SDS011;4446;50.876;4.736;2024-03-22T14:49:00;10.93;;;6.15;;
8819;SDS011;4446;50.876;4.736;2024-03-22T14:51:27;9.20;;;5.45;;
8819;SDS011;4446;50.876;4.736;2024-03-22T14:53:54;9.68;;;6.05;;
8819;SDS011;4446;50.876;4.736;2024-03-22T14:56:21;11.15;;;6.95;;
8819;SDS011;4446;50.876;4.736;2024-03-22T14:58:48;8.30;;;5.32;;
8819;SDS011;4446;50.876;4.736;2024-03-22T15:01:16;8.95;;;5.70;;